createdAt,value
2022-12-03T00:00:26.000Z,99.90
2022-12-03T00:02:55.252Z,99.90
2022-12-03T00:05:24.455Z,99.90
2022-12-03T00:07:53.654Z,99.90
2022-12-03T00:10:22.861Z,99.90
2022-12-03T00:12:52.025Z,99.90
2022-12-03T00:15:21.992Z,99.90
2022-12-03T00:17:52.672Z,99.90
2022-12-03T00:20:26.015Z,99.90
2022-12-03T00:22:55.325Z,99.90
2022-12-03T00:25:27.178Z,99.90
2022-12-03T00:27:56.277Z,99.90
2022-12-03T00:30:25.378Z,99.90
2022-12-03T00:32:54.467Z,99.90
2022-12-03T00:35:23.543Z,99.90
2022-12-03T00:37:52.670Z,99.90
2022-12-03T00:40:21.853Z,99.90
2022-12-03T00:42:50.920Z,99.90
2022-12-03T00:45:21.063Z,99.90
2022-12-03T00:47:50.368Z,99.90
2022-12-03T00:50:19.699Z,99.90
2022-12-03T00:52:48.945Z,99.90
2022-12-03T00:55:18.702Z,99.90
2022-12-03T00:57:48.082Z,99.90
2022-12-03T01:00:17.926Z,99.90
2022-12-03T01:02:47.017Z,99.90
2022-12-03T01:05:16.228Z,99.90
2022-12-03T01:07:47.069Z,99.90
2022-12-03T01:10:16.637Z,99.90
2022-12-03T01:12:45.855Z,99.90
2022-12-03T01:15:15.857Z,99.90
2022-12-03T01:17:45.149Z,99.90
2022-12-03T01:20:15.114Z,99.90
2022-12-03T01:22:46.918Z,99.90
2022-12-03T01:25:16.277Z,99.90
2022-12-03T01:27:45.519Z,99.90
2022-12-03T01:30:18.822Z,99.90
2022-12-03T01:32:48.082Z,99.90
2022-12-03T01:35:19.093Z,99.90
2022-12-03T01:37:53.573Z,99.90
2022-12-03T01:40:29.249Z,99.90
2022-12-03T01:43:04.049Z,99.90
2022-12-03T01:45:37.507Z,99.90
2022-12-03T01:48:09.125Z,99.90
2022-12-03T01:50:43.215Z,99.90
2022-12-03T01:53:19.941Z,99.90
2022-12-03T01:56:22.694Z,99.90
2022-12-03T01:58:54.989Z,99.90
2022-12-03T02:01:29.969Z,99.90
2022-12-03T02:04:04.578Z,99.90
2022-12-03T02:06:33.840Z,99.90
2022-12-03T02:09:06.516Z,99.90
2022-12-03T02:11:41.150Z,99.90
2022-12-03T02:14:19.343Z,99.90
2022-12-03T02:16:49.628Z,99.90
2022-12-03T02:19:33.113Z,99.90
2022-12-03T02:22:12.436Z,99.90
2022-12-03T02:25:11.173Z,99.90
2022-12-03T02:27:41.226Z,99.90
2022-12-03T02:30:12.732Z,99.90
2022-12-03T02:32:42.285Z,99.50
2022-12-03T02:35:22.491Z,99.40
2022-12-03T02:38:19.583Z,99.00
2022-12-03T02:40:52.837Z,98.60
2022-12-03T02:43:23.984Z,98.30
2022-12-03T02:45:57.502Z,98.10
2022-12-03T02:48:39.583Z,98.30
2022-12-03T02:51:12.196Z,98.50
2022-12-03T02:53:47.511Z,98.30
2022-12-03T02:56:24.731Z,98.10
2022-12-03T02:58:59.731Z,98.20
2022-12-03T03:01:29.396Z,98.00
2022-12-03T03:03:59.795Z,97.90
2022-12-03T03:06:29.340Z,97.60
2022-12-03T03:08:59.475Z,97.80
2022-12-03T03:11:29.333Z,97.50
2022-12-03T03:13:58.591Z,97.50
2022-12-03T03:16:43.988Z,97.80
2022-12-03T03:19:14.010Z,97.80
2022-12-03T03:21:43.243Z,97.50
2022-12-03T03:24:12.586Z,97.40
2022-12-03T03:26:41.780Z,97.50
2022-12-03T03:29:11.272Z,96.90
2022-12-03T03:31:41.971Z,97.00
2022-12-03T03:34:12.342Z,96.90
2022-12-03T03:36:42.593Z,96.60
2022-12-03T03:39:12.332Z,96.50
2022-12-03T03:41:42.487Z,96.20
2022-12-03T03:44:14.873Z,96.20
2022-12-03T03:46:45.228Z,96.20
2022-12-03T03:49:14.958Z,96.00
2022-12-03T03:51:44.514Z,95.90
2022-12-03T03:54:14.244Z,95.50
2022-12-03T03:56:43.901Z,95.20
2022-12-03T03:59:15.047Z,95.10
2022-12-03T04:01:47.653Z,94.90
2022-12-03T04:04:24.900Z,95.00
2022-12-03T04:06:54.454Z,94.60
2022-12-03T04:09:23.585Z,94.60
2022-12-03T04:12:11.228Z,94.50
2022-12-03T04:14:40.398Z,94.80
2022-12-03T04:17:09.935Z,94.70
2022-12-03T04:19:39.306Z,94.40
2022-12-03T04:22:26.402Z,94.10
2022-12-03T04:25:15.403Z,94.00
2022-12-03T04:28:03.292Z,93.80
2022-12-03T04:30:32.577Z,93.90
2022-12-03T04:33:20.086Z,93.70
2022-12-03T04:35:49.846Z,93.30
2022-12-03T04:38:19.191Z,93.20
2022-12-03T04:41:05.033Z,92.90
2022-12-03T04:43:56.402Z,92.70
2022-12-03T04:46:25.580Z,92.50
2022-12-03T04:48:54.759Z,92.70
2022-12-03T04:51:23.945Z,92.80
2022-12-03T04:53:53.324Z,92.30
2022-12-03T04:56:22.492Z,92.20
2022-12-03T04:58:54.844Z,91.90
2022-12-03T05:01:24.302Z,91.50
2022-12-03T05:03:53.469Z,91.30
2022-12-03T05:06:23.009Z,91.70
2022-12-03T05:08:52.202Z,91.40
2022-12-03T05:11:21.372Z,91.40
2022-12-03T05:13:52.192Z,91.00
2022-12-03T05:16:22.221Z,90.80
2022-12-03T05:18:51.451Z,91.00
2022-12-03T05:21:21.556Z,90.70
2022-12-03T05:23:52.223Z,90.70
2022-12-03T05:26:21.407Z,90.50
2022-12-03T05:28:50.957Z,90.40
2022-12-03T05:31:20.406Z,90.70
2022-12-03T05:33:49.839Z,90.40
2022-12-03T05:36:19.383Z,90.30
2022-12-03T05:38:48.638Z,90.50
2022-12-03T05:41:35.771Z,90.70
2022-12-03T05:44:04.995Z,90.40
2022-12-03T05:46:34.574Z,90.10
2022-12-03T05:49:03.793Z,90.10
2022-12-03T05:51:32.993Z,90.20
2022-12-03T05:54:02.155Z,90.40
2022-12-03T05:56:31.310Z,90.40
2022-12-03T05:59:00.496Z,90.50
2022-12-03T06:01:29.637Z,90.60
2022-12-03T06:03:58.878Z,90.00
2022-12-03T06:06:28.277Z,90.30
2022-12-03T06:08:57.488Z,90.00
2022-12-03T06:11:26.649Z,90.10
2022-12-03T06:13:56.013Z,90.20
2022-12-03T06:16:25.826Z,90.70
2022-12-03T06:18:55.057Z,90.90
2022-12-03T06:21:24.268Z,90.40
2022-12-03T06:23:53.394Z,90.30
2022-12-03T06:26:22.698Z,90.50
2022-12-03T06:28:51.889Z,90.00
2022-12-03T06:31:21.093Z,89.50
2022-12-03T06:33:50.268Z,88.00
2022-12-03T06:36:23.053Z,87.70
2022-12-03T06:38:52.738Z,87.70
2022-12-03T06:41:22.075Z,87.40
2022-12-03T06:43:51.211Z,87.00
2022-12-03T06:46:20.419Z,86.80
2022-12-03T06:48:49.671Z,86.70
2022-12-03T06:51:18.843Z,87.90
2022-12-03T06:53:48.019Z,87.20
2022-12-03T06:56:21.536Z,86.60
2022-12-03T06:58:51.795Z,86.10
2022-12-03T07:01:21.337Z,86.10
2022-12-03T07:03:50.560Z,85.10
2022-12-03T07:06:19.784Z,85.30
2022-12-03T07:08:49.651Z,85.40
2022-12-03T07:11:41.001Z,85.60
2022-12-03T07:14:14.957Z,85.60
2022-12-03T07:16:44.636Z,85.20
2022-12-03T07:19:14.031Z,85.50
2022-12-03T07:21:43.469Z,84.60
2022-12-03T07:24:13.243Z,84.20
2022-12-03T07:26:42.378Z,84.60
2022-12-03T07:29:11.565Z,85.20
2022-12-03T07:31:40.754Z,85.60
2022-12-03T07:34:10.065Z,84.50
2022-12-03T07:36:39.422Z,84.40
2022-12-03T07:39:08.646Z,84.10
2022-12-03T07:41:37.851Z,84.40
2022-12-03T07:44:13.951Z,84.20
2022-12-03T07:46:44.359Z,84.30
2022-12-03T07:49:13.852Z,84.90
2022-12-03T07:51:43.846Z,84.60
2022-12-03T07:54:13.000Z,84.80
2022-12-03T07:56:42.395Z,85.20
2022-12-03T07:59:11.524Z,84.70
2022-12-03T08:01:40.904Z,85.10
2022-12-03T08:04:12.306Z,85.50
2022-12-03T08:06:43.491Z,86.10
2022-12-03T08:09:16.031Z,86.00
2022-12-03T08:11:50.247Z,86.20
2022-12-03T08:14:22.005Z,85.80
2022-12-03T08:16:52.127Z,84.30
2022-12-03T08:19:21.813Z,84.40
2022-12-03T08:21:52.278Z,85.10
2022-12-03T08:24:23.871Z,86.10
2022-12-03T08:26:53.039Z,85.50
2022-12-03T08:29:22.691Z,85.40
2022-12-03T08:31:58.498Z,85.60
2022-12-03T08:34:32.573Z,85.80
2022-12-03T08:37:14.256Z,85.40
2022-12-03T08:39:56.093Z,85.50
2022-12-03T08:42:42.972Z,85.90
2022-12-03T08:45:41.375Z,85.60
2022-12-03T08:48:34.106Z,86.30
2022-12-03T08:51:26.028Z,86.90
2022-12-03T08:54:12.915Z,86.70
2022-12-03T08:56:44.344Z,86.90
2022-12-03T08:59:33.518Z,87.20
2022-12-03T09:02:03.200Z,87.20
2022-12-03T09:04:48.739Z,87.30
2022-12-03T09:07:17.973Z,87.60
2022-12-03T09:09:47.194Z,87.80
2022-12-03T09:12:16.748Z,88.40
2022-12-03T09:14:45.930Z,88.60
2022-12-03T09:17:15.071Z,88.90
2022-12-03T09:19:46.448Z,88.80
2022-12-03T09:22:18.201Z,88.90
2022-12-03T09:24:47.551Z,89.30
2022-12-03T09:27:16.719Z,89.50
2022-12-03T09:29:45.926Z,89.70
2022-12-03T09:32:18.296Z,89.60
2022-12-03T09:34:48.194Z,89.70
2022-12-03T09:37:17.416Z,89.70
2022-12-03T09:39:46.654Z,89.90
2022-12-03T09:42:16.480Z,90.00
2022-12-03T09:44:46.332Z,90.00
2022-12-03T09:47:15.886Z,90.00
2022-12-03T09:49:45.666Z,90.00
2022-12-03T09:52:27.840Z,90.10
2022-12-03T09:54:57.347Z,90.20
2022-12-03T09:57:26.777Z,90.40
2022-12-03T09:59:56.525Z,90.60
2022-12-03T10:02:32.677Z,90.80
2022-12-03T10:05:01.921Z,91.00
2022-12-03T10:07:31.166Z,91.20
2022-12-03T10:10:00.655Z,91.40
2022-12-03T10:12:30.735Z,91.50
2022-12-03T10:14:59.956Z,91.70
2022-12-03T10:17:35.494Z,91.80
2022-12-03T10:20:05.388Z,91.90
2022-12-03T10:22:38.207Z,92.00
2022-12-03T10:25:13.435Z,92.00
2022-12-03T10:27:43.710Z,92.20
2022-12-03T10:30:24.335Z,92.10
2022-12-03T10:32:54.583Z,92.20
2022-12-03T10:35:44.769Z,92.30
2022-12-03T10:38:23.256Z,92.40
2022-12-03T10:40:52.904Z,92.60
2022-12-03T10:43:25.811Z,92.90
2022-12-03T10:46:04.130Z,93.10
2022-12-03T10:48:33.443Z,93.10
2022-12-03T10:51:24.132Z,93.30
2022-12-03T10:53:53.596Z,93.20
2022-12-03T10:56:29.602Z,93.30
2022-12-03T10:58:59.150Z,93.50
2022-12-03T11:01:28.887Z,94.00
2022-12-03T11:04:06.184Z,94.00
2022-12-03T11:06:35.377Z,94.10
2022-12-03T11:09:09.163Z,94.00
2022-12-03T11:11:38.738Z,93.80
2022-12-03T11:14:11.407Z,93.70
2022-12-03T11:16:43.237Z,93.80
2022-12-03T11:19:20.877Z,93.80
2022-12-03T11:22:08.022Z,93.80
2022-12-03T11:24:42.334Z,94.00
2022-12-03T11:27:11.465Z,94.10
2022-12-03T11:30:02.012Z,94.30
2022-12-03T11:32:40.595Z,94.30
2022-12-03T11:35:27.333Z,94.40
2022-12-03T11:37:56.705Z,94.50
2022-12-03T11:40:33.519Z,94.50
2022-12-03T11:43:06.447Z,94.70
2022-12-03T11:45:40.316Z,94.70
2022-12-03T11:48:17.561Z,94.80
2022-12-03T11:50:54.896Z,94.80
2022-12-03T11:53:28.245Z,94.90
2022-12-03T11:56:09.950Z,95.00
2022-12-03T11:58:44.112Z,95.10
2022-12-03T12:01:15.744Z,95.20
2022-12-03T12:03:51.677Z,95.50
2022-12-03T12:06:23.015Z,95.60
2022-12-03T12:09:01.661Z,95.60
2022-12-03T12:11:38.419Z,95.70
2022-12-03T12:14:11.045Z,95.80
2022-12-03T12:16:56.155Z,95.90
2022-12-03T12:19:35.755Z,96.00
2022-12-03T12:22:16.962Z,96.10
2022-12-03T12:24:52.502Z,96.10
2022-12-03T12:27:32.663Z,96.20
2022-12-03T12:30:10.932Z,96.30
2022-12-03T12:33:03.943Z,96.50
2022-12-03T12:35:33.913Z,96.00
2022-12-03T12:38:11.712Z,96.60
2022-12-03T12:40:45.960Z,96.70
2022-12-03T12:43:27.025Z,96.80
2022-12-03T12:46:31.444Z,96.90
2022-12-03T12:49:00.038Z,97.00
2022-12-03T12:51:29.407Z,97.10
2022-12-03T12:53:59.713Z,97.10
2022-12-03T12:56:33.890Z,97.20
2022-12-03T12:59:30.630Z,97.30
2022-12-03T13:02:07.114Z,97.20
2022-12-03T13:04:41.178Z,97.50
2022-12-03T13:07:12.245Z,97.50
2022-12-03T13:09:41.871Z,97.60
2022-12-03T13:12:23.428Z,97.70
2022-12-03T13:14:53.674Z,97.60
2022-12-03T13:17:25.454Z,97.70
2022-12-03T13:20:06.648Z,97.90
2022-12-03T13:22:36.993Z,97.90
2022-12-03T13:26:00.274Z,98.00
2022-12-03T13:28:28.851Z,98.00
2022-12-03T13:31:19.594Z,98.20
2022-12-03T13:33:48.868Z,98.10
2022-12-03T13:36:21.359Z,98.20
2022-12-03T13:38:51.008Z,98.20
2022-12-03T13:41:41.261Z,98.40
2022-12-03T13:44:20.543Z,98.40
2022-12-03T13:46:49.731Z,98.50
2022-12-03T13:49:24.559Z,98.50
2022-12-03T13:51:53.789Z,98.50
2022-12-03T13:54:32.316Z,98.40
2022-12-03T13:57:03.616Z,98.40
2022-12-03T13:59:32.744Z,98.50
2022-12-03T14:02:01.961Z,98.60
2022-12-03T14:04:31.203Z,98.70
2022-12-03T14:07:00.338Z,98.70
2022-12-03T14:09:29.633Z,98.80
2022-12-03T14:12:17.336Z,98.90
2022-12-03T14:14:46.887Z,98.90
2022-12-03T14:17:16.169Z,98.90
2022-12-03T14:19:46.280Z,99.00
2022-12-03T14:22:15.413Z,99.10
2022-12-03T14:24:44.543Z,99.20
2022-12-03T14:27:13.695Z,99.10
2022-12-03T14:29:42.860Z,99.20
2022-12-03T14:32:12.103Z,99.20
2022-12-03T14:34:41.416Z,99.50
2022-12-03T14:37:10.556Z,99.20
2022-12-03T14:39:39.704Z,99.20
2022-12-03T14:42:14.914Z,99.60
2022-12-03T14:44:47.491Z,99.30
2022-12-03T14:47:19.501Z,99.40
2022-12-03T14:49:48.853Z,99.40
2022-12-03T14:52:19.067Z,99.50
2022-12-03T14:54:48.499Z,99.60
2022-12-03T14:57:18.321Z,99.60
2022-12-03T14:59:48.087Z,99.60
2022-12-03T15:02:17.288Z,99.60
2022-12-03T15:04:46.463Z,99.60
2022-12-03T15:07:15.678Z,99.70
2022-12-03T15:09:44.826Z,99.80
2022-12-03T15:12:14.937Z,99.80
2022-12-03T15:14:44.159Z,99.80
2022-12-03T15:17:13.344Z,99.80
2022-12-03T15:19:42.539Z,99.80
2022-12-03T15:22:11.731Z,99.90
2022-12-03T15:24:40.949Z,99.90
2022-12-03T15:27:10.078Z,99.90
2022-12-03T15:29:40.861Z,99.90
2022-12-03T15:32:10.645Z,99.90
2022-12-03T15:34:39.813Z,99.90
2022-12-03T15:37:10.134Z,99.90
2022-12-03T15:39:43.724Z,99.90
2022-12-03T15:42:17.291Z,99.90
2022-12-03T15:44:46.416Z,99.90
2022-12-03T15:47:15.587Z,99.90
2022-12-03T15:49:44.784Z,99.90
2022-12-03T15:52:13.902Z,99.90
2022-12-03T15:54:43.081Z,99.90
2022-12-03T15:57:12.312Z,99.90
2022-12-03T15:59:41.470Z,99.90
2022-12-03T16:02:11.147Z,99.90
2022-12-03T16:04:40.418Z,99.90
2022-12-03T16:07:10.333Z,99.90
2022-12-03T16:09:39.775Z,99.90
2022-12-03T16:12:09.418Z,99.90
2022-12-03T16:14:38.655Z,99.90
2022-12-03T16:17:07.949Z,99.90
2022-12-03T16:19:37.425Z,99.90
2022-12-03T16:22:06.623Z,99.90
2022-12-03T16:24:35.796Z,99.90
2022-12-03T16:27:05.288Z,99.90
2022-12-03T16:29:34.752Z,99.90
2022-12-03T16:32:04.267Z,99.90
2022-12-03T16:34:33.393Z,99.90
2022-12-03T16:37:02.634Z,99.90
2022-12-03T16:39:31.922Z,99.90
2022-12-03T16:42:01.022Z,99.90
2022-12-03T16:44:34.653Z,99.90
2022-12-03T16:47:03.838Z,99.90
2022-12-03T16:49:33.369Z,99.90
2022-12-03T16:52:02.835Z,99.90
2022-12-03T16:54:31.984Z,99.90
2022-12-03T16:57:01.152Z,99.90
2022-12-03T16:59:30.330Z,99.90
2022-12-03T17:01:59.604Z,99.90
2022-12-03T17:04:28.830Z,99.90
2022-12-03T17:06:58.161Z,99.90
2022-12-03T17:09:27.469Z,99.90
2022-12-03T17:11:57.060Z,99.90
2022-12-03T17:14:31.455Z,99.90
2022-12-03T17:17:02.442Z,99.90
2022-12-03T17:19:31.702Z,99.90
2022-12-03T17:22:00.856Z,99.90
2022-12-03T17:24:30.029Z,99.90
2022-12-03T17:26:59.235Z,99.90
2022-12-03T17:29:28.398Z,99.90
2022-12-03T17:31:57.669Z,99.90
2022-12-03T17:34:26.946Z,99.90
2022-12-03T17:36:56.108Z,99.90
2022-12-03T17:39:25.494Z,99.90
2022-12-03T17:41:54.659Z,99.90
2022-12-03T17:44:23.891Z,99.90
2022-12-03T17:46:53.286Z,99.90
2022-12-03T17:49:25.673Z,99.90
2022-12-03T17:51:57.552Z,99.90
2022-12-03T17:54:43.271Z,99.90
2022-12-03T17:57:15.980Z,99.90
2022-12-03T17:59:45.157Z,99.90
2022-12-03T18:02:14.564Z,99.90
2022-12-03T18:04:46.251Z,99.90
2022-12-03T18:07:15.386Z,99.90
2022-12-03T18:09:44.597Z,99.90
2022-12-03T18:12:15.001Z,99.90
2022-12-03T18:14:44.203Z,99.90
2022-12-03T18:17:13.308Z,99.90
2022-12-03T18:19:42.426Z,99.90
2022-12-03T18:22:13.664Z,99.90
2022-12-03T18:24:45.030Z,99.90
2022-12-03T18:27:15.505Z,99.90
2022-12-03T18:29:44.599Z,99.90
2022-12-03T18:32:27.844Z,99.90
2022-12-03T18:34:58.675Z,99.90
2022-12-03T18:37:32.781Z,99.90
2022-12-03T18:40:12.125Z,99.90
2022-12-03T18:42:42.079Z,99.90
2022-12-03T18:45:14.135Z,99.90
2022-12-03T18:47:43.906Z,99.90
2022-12-03T18:50:14.409Z,99.90
2022-12-03T18:52:43.515Z,99.90
2022-12-03T18:55:22.963Z,99.90
2022-12-03T18:57:52.104Z,99.90
2022-12-03T19:00:21.563Z,99.90
2022-12-03T19:03:05.857Z,99.90
2022-12-03T19:05:37.540Z,99.90
2022-12-03T19:08:15.759Z,99.90
2022-12-03T19:10:45.705Z,99.90
2022-12-03T19:13:15.333Z,99.90
2022-12-03T19:15:44.446Z,99.90
2022-12-03T19:18:13.563Z,99.90
2022-12-03T19:20:44.235Z,99.90
2022-12-03T19:23:13.451Z,99.90
2022-12-03T19:25:45.782Z,99.90
2022-12-03T19:28:14.905Z,99.90
2022-12-03T19:30:44.036Z,99.90
2022-12-03T19:33:17.923Z,99.90
2022-12-03T19:35:47.332Z,99.90
2022-12-03T19:38:16.509Z,99.90
2022-12-03T19:40:45.691Z,99.90
2022-12-03T19:43:14.899Z,99.90
2022-12-03T19:45:44.121Z,99.90
2022-12-03T19:48:13.282Z,99.90
2022-12-03T19:51:13.260Z,99.90
2022-12-03T19:53:44.030Z,99.90
2022-12-03T19:56:19.451Z,99.90
2022-12-03T19:58:49.387Z,99.90
2022-12-03T20:01:25.475Z,99.90
2022-12-03T20:03:58.070Z,99.90
2022-12-03T20:06:31.598Z,99.90
2022-12-03T20:09:04.970Z,99.90
2022-12-03T20:11:37.231Z,99.90
2022-12-03T20:14:14.014Z,99.90
2022-12-03T20:16:44.961Z,99.90
2022-12-03T20:19:18.521Z,99.90
2022-12-03T20:21:47.969Z,99.90
2022-12-03T20:24:20.193Z,99.90
2022-12-03T20:26:49.596Z,99.90
2022-12-03T20:29:18.935Z,99.90
2022-12-03T20:31:48.130Z,99.90
2022-12-03T20:34:17.375Z,99.90
2022-12-03T20:36:46.507Z,99.90
2022-12-03T20:39:15.661Z,99.90
2022-12-03T20:41:44.904Z,99.90
2022-12-03T20:44:14.877Z,99.90
2022-12-03T20:46:44.082Z,99.90
2022-12-03T20:49:13.421Z,99.90
2022-12-03T20:51:43.607Z,99.90
2022-12-03T20:54:12.807Z,99.90
2022-12-03T20:56:42.972Z,99.90
2022-12-03T20:59:18.008Z,99.90
2022-12-03T21:01:47.358Z,99.90
2022-12-03T21:04:18.994Z,99.90
2022-12-03T21:06:48.268Z,99.90
2022-12-03T21:09:17.481Z,99.90
2022-12-03T21:11:48.199Z,99.90
2022-12-03T21:14:17.290Z,99.90
2022-12-03T21:17:07.855Z,99.90
2022-12-03T21:19:38.683Z,99.90
2022-12-03T21:22:08.402Z,99.90
2022-12-03T21:24:37.770Z,99.90
2022-12-03T21:27:06.866Z,99.90
2022-12-03T21:29:35.946Z,99.90
2022-12-03T21:32:05.208Z,99.90
2022-12-03T21:34:36.461Z,99.90
2022-12-03T21:37:06.156Z,99.90
2022-12-03T21:39:35.289Z,99.90
2022-12-03T21:42:34.275Z,99.90
2022-12-03T21:44:54.614Z,99.90
2022-12-03T21:47:23.864Z,99.90
2022-12-03T21:49:53.295Z,99.90
2022-12-03T21:52:22.643Z,99.90
2022-12-03T21:54:54.680Z,99.90
2022-12-03T21:57:23.974Z,99.90
2022-12-03T21:59:53.379Z,99.90
2022-12-03T22:02:23.294Z,99.90
2022-12-03T22:04:53.011Z,99.90
2022-12-03T22:07:22.123Z,99.90
2022-12-03T22:09:51.241Z,99.90
2022-12-03T22:12:21.734Z,99.90
2022-12-03T22:14:50.872Z,99.90
2022-12-03T22:17:19.976Z,99.90
2022-12-03T22:19:49.951Z,99.90
2022-12-03T22:22:19.563Z,99.90
2022-12-03T22:24:48.943Z,99.90
2022-12-03T22:27:18.047Z,99.90
2022-12-03T22:29:47.197Z,99.90
2022-12-03T22:32:16.323Z,99.90
2022-12-03T22:34:45.464Z,99.90
2022-12-03T22:37:14.590Z,99.90
2022-12-03T22:39:43.655Z,99.90
2022-12-03T22:42:12.830Z,99.90
2022-12-03T22:44:41.930Z,99.90
2022-12-03T22:47:11.015Z,99.90
2022-12-03T22:49:40.128Z,99.90
2022-12-03T22:52:09.935Z,99.90
2022-12-03T22:54:38.999Z,99.90
2022-12-03T22:57:08.135Z,99.90
2022-12-03T22:59:37.217Z,99.90
2022-12-03T23:02:06.495Z,99.90
2022-12-03T23:04:35.612Z,99.90
2022-12-03T23:07:04.692Z,99.90
2022-12-03T23:09:33.776Z,99.90
2022-12-03T23:12:02.884Z,99.90
2022-12-03T23:14:33.179Z,99.90
2022-12-03T23:17:02.310Z,99.90
2022-12-03T23:19:31.382Z,99.90
2022-12-03T23:22:00.526Z,99.90
2022-12-03T23:24:30.017Z,99.90
2022-12-03T23:26:59.128Z,99.90
2022-12-03T23:29:28.232Z,99.90
2022-12-03T23:31:59.105Z,99.90
2022-12-03T23:34:28.221Z,99.90
2022-12-03T23:36:57.349Z,99.90
2022-12-03T23:39:26.458Z,99.90
2022-12-03T23:41:55.556Z,99.90
2022-12-03T23:44:24.921Z,99.90
2022-12-03T23:46:54.064Z,99.90
2022-12-03T23:49:23.200Z,99.90
2022-12-03T23:51:52.306Z,99.90
2022-12-03T23:54:21.668Z,99.90
2022-12-03T23:56:50.817Z,99.90
2022-12-03T23:59:19.896Z,99.90
